Terminal Aerodrome Forecast
Issued by NWS

Home | Current Version | Previous Version | Text Only | Print | Product List | Glossary On
Versions: 1 2 3 4 5 6 7 8 9 10 11 12 13 14 15
060
FTUS43 KICT 191139
TAFCNU
TAF
KCNU 191139Z 1912/2012 17008KT 1SM BR OVC002
      TEMPO 1912/1914 1/4SM FG OVC002
     FM191700 17010KT P6SM SCT003 OVC012
     FM200500 16011KT 4SM -SHRA VCTS OVC008CB
     FM200700 16011KT 1SM -SHRA VCTS OVC003CB=

USA.gov is the U.S. government's official web portal to all federal, state and local government web resources and services.